Airport View

Enter AWOS ICAO identifier for current METAR.

ex. KFNL

KLEB 051253Z 17010KT 10SM CLR 23/18 A2995 RMK AO2 SLP130 T02330183

5 Aug 2020 13:21

Frequency: 118.65

Phone: 603-298-8780

Other Area AWOS: KVSF - K1P1 - KRUT - KMPV

KLEB 051132Z 0512/0612 19006KT P6SM SCT035 FM051400 24010G17KT P6SM SCT250 FM052300 VRB03KT P6SM SCT250 FM060800 00000KT 2SM BR BKN002